• Join FlightAware (Why Join?)
  • Login
  • US Flag GB Flag 
01:44 EST


 

Airport Tracker/Info


-or-


 

Live Flight TrackerFlight Track Log ✈ DAL3799 ✈ 19-Apr-2013 ✈ KDTW - CYOW

Flight Track Log - Related Links

Times and Time Zones

All times are in EDT time to prevent confusion due to time zone crossing. See the DAL3799 flight status page for this flight to view local times or setup timezone preferences in your user account.

Time Position Orientation Groundspeed Altitude Reporting Facility
EDT Latitude Longitude Course Direction KTS MPH feet Rate Location/Type
22:29 42.2100 -83.3531 16° North 143 165 1,300  Level Cleveland Center
22:29 42.1892 -83.3458 166° South 180 207 2,400 2,400 Climbing FAA TRACON SMA TRACON (SMA)
22:30 42.1689 -83.3406 169° South 197 227 3,500 3,120 Climbing FAA TRACON SMA TRACON (SMA)
22:30 42.1481 -83.3339 167° South 217 250 4,500 2,220 Climbing FAA TRACON SMA TRACON (SMA)
22:30 42.1272 -83.3261 165° South 255 293 5,000 2,160 Climbing FAA TRACON SMA TRACON (SMA)
22:31 42.1108 -83.3022 133° Southeast 295 339 6,000 3,060 Climbing FAA TRACON SMA TRACON (SMA)
22:31 42.1064 -83.2686 100° East 305 351 7,000 3,300 Climbing FAA TRACON SMA TRACON (SMA)
22:31 42.1144 -83.2267 75° East 305 351 8,200 3,000 Climbing FAA TRACON SMA TRACON (SMA)
22:32 42.1317 -83.2008 48° Northeast 307 353 9,000 2,820 Climbing FAA TRACON SMA TRACON (SMA)
22:32 42.1622 -83.1900 15° North 297 342 10,100 2,760 Climbing FAA TRACON SMA TRACON (SMA)
22:32 42.1872 -83.1894 North 298 343 10,900 1,500 Climbing FAA TRACON SMA TRACON (SMA)
22:33 42.2139 -83.1886 North 327 376 11,100 600 Climbing FAA TRACON SMA TRACON (SMA)
22:33 42.2506 -83.1861 North 360 414 11,300 1,200 Climbing FAA TRACON SMA TRACON (SMA)
22:33 42.2811 -83.1842 North 358 412 11,900 1,620 Climbing FAA TRACON SMA TRACON (SMA)
22:34 42.8493 -83.1336 16° North  Level FlightAware Approximate
22:34 42.3122 -83.1817 North 368 423 12,400  Level FAA TRACON SMA TRACON (SMA)
22:34 42.3525 -83.1789 North 377 434 13,000 1,680 Climbing FAA TRACON SMA TRACON (SMA)
22:34 42.3856 -83.1761 North 387 445 13,500 1,620 Climbing FAA TRACON SMA TRACON (SMA)
22:35 42.4186 -83.1739 North 387 445 14,100 1,800 Climbing FAA TRACON SMA TRACON (SMA)
22:35 42.4608 -83.1700 North 393 452 14,700 1,800 Climbing FAA TRACON SMA TRACON (SMA)
22:35 42.4936 -83.1567 17° North 400 460 15,300 1,560 Climbing FAA TRACON SMA TRACON (SMA)
22:36 42.5256 -83.1356 26° Northeast 416 479 15,800 1,800 Climbing FAA TRACON SMA TRACON (SMA)
22:36 42.5650 -83.1089 26° Northeast 415 478 16,500 1,800 Climbing FAA TRACON SMA TRACON (SMA)
22:36 42.5972 -83.0867 27° Northeast 418 481 17,000 1,320 Climbing FAA TRACON SMA TRACON (SMA)
22:37 42.6292 -83.0647 27° Northeast 419 482 17,400 1,800 Climbing FAA TRACON SMA TRACON (SMA)
22:37 42.6697 -83.0347 29° Northeast 429 494 18,200 1,920 Climbing FAA TRACON SMA TRACON (SMA)
22:37 42.7022 -83.0114 28° Northeast 429 494 18,700 1,320 Climbing FAA TRACON SMA TRACON (SMA)
22:38 42.7339 -82.9889 28° Northeast 433 498 19,100 1,440 Climbing FAA TRACON SMA TRACON (SMA)
22:38 42.7769 -82.9583 28° Northeast 436 502 19,700 1,380 Climbing FAA TRACON SMA TRACON (SMA)
22:38 42.8100 -82.9336 29° Northeast 442 509 20,000 1,020 Climbing FAA TRACON SMA TRACON (SMA)
22:39 42.8342 -82.8964 48° Northeast 449 517 20,400 1,320 Climbing FAA TRACON SMA TRACON (SMA)
22:39 42.8522 -82.8331 69° East 440 506 20,900 1,200 Climbing FAA TRACON SMA TRACON (SMA)
22:39 42.8647 -82.7836 71° East 445 512 21,200 720 Climbing FAA TRACON SMA TRACON (SMA)
22:40 42.8778 -82.7386 68° East 446 513 21,400 720 Climbing FAA TRACON SMA TRACON (SMA)
22:40 42.8947 -82.6719 71° East 453 521 21,700 720 Climbing FAA TRACON SMA TRACON (SMA)
22:40 42.9081 -82.6208 70° East 459 528 21,900 720 Climbing FAA TRACON SMA TRACON (SMA)
22:41 42.9250 -82.5394 74° East 432 497 22,300 780 Climbing Cleveland Center
22:41 42.9333 -82.4833 79° East 470 541 22,500 840 Climbing Toronto Center
22:42 42.9667 -82.3000 76° East 480 552 23,400 840 Climbing Toronto Center
22:43 43.0000 -82.1333 75° East 480 552 24,200 780 Climbing Toronto Center
22:44 43.0167 -81.9333 83° East 480 552 25,000 360 Climbing Toronto Center
22:45 43.0667 -81.7500 69° East 490 564 25,000  Level Toronto Center
22:46 43.1000 -81.6000 73° East 520 598 25,000  Level Toronto Center
22:47 43.1667 -81.4000 65° Northeast 530 610 25,000  Level Toronto Center
22:48 43.2167 -81.1833 72° East 540 621 25,000  Level Toronto Center
22:49 43.2667 -81.0000 69° East 550 633 25,000  Level Toronto Center
22:50 43.3333 -80.8000 65° Northeast 550 633 25,000  Level Toronto Center
22:51 43.4000 -80.6167 63° Northeast 550 633 25,000  Level Toronto Center
22:52 43.4500 -80.4167 71° East 560 644 25,000  Level Toronto Center
22:53 43.5000 -80.2000 72° East 560 644 25,000  Level Toronto Center
22:54 43.5667 -80.0000 65° Northeast 560 644 25,000  Level Toronto Center
22:55 43.6167 -79.8167 69° East 570 656 25,000  Level Toronto Center
22:56 43.6667 -79.6167 71° East 560 644 25,000  Level Toronto Center
22:57 43.7333 -79.4000 67° East 560 644 25,000  Level Toronto Center
22:58 43.7833 -79.2000 71° East 570 656 25,000  Level Toronto Center
22:59 43.8333 -79.0167 69° East 560 644 25,000  Level Toronto Center
23:00 43.9000 -78.8000 67° East 560 644 25,000  Level Toronto Center
23:01 43.9500 -78.5833 72° East 560 644 25,000  Level Toronto Center
23:02 44.0000 -78.3833 71° East 560 644 25,000  Level Toronto Center
23:03 44.0667 -78.2000 63° Northeast 580 667 25,000  Level Toronto Center
23:04 44.1333 -78.0000 65° Northeast 580 667 25,000  Level Toronto Center
23:05 44.2333 -77.8000 55° Northeast 590 679 25,000  Level Toronto Center
23:06 44.3333 -77.6000 55° Northeast 590 679 25,000  Level Toronto Center
23:07 44.4167 -77.4167 57° Northeast 580 667 25,000  Level Toronto Center
23:08 44.5000 -77.2167 60° Northeast 580 667 25,000 -480 Level Toronto Center
23:09 44.5833 -77.0333 57° Northeast 580 667 24,100 -1,500 Descending Toronto Center
23:10 44.6667 -76.8667 55° Northeast 570 656 22,000 -2,220 Descending Toronto Center
23:11 44.7667 -76.6667 55° Northeast 560 644 19,700 -2,400 Descending Toronto Center
23:12 44.8500 -76.5333 49° Northeast 530 610 17,300 -2,340 Descending Toronto Center
23:13 44.9333 -76.3500 57° Northeast 500 575 15,100 -2,100 Descending Toronto Center
23:14 45.0000 -76.1833 60° Northeast 480 552 13,200 -1,800 Descending Toronto Center
23:15 45.0333 -76.0167 74° East 440 506 11,600 -1,500 Descending Toronto Center
23:16 45.0667 -75.9000 68° East 380 437 10,300 -1,500 Descending Toronto Center
23:17 45.0833 -75.7833 79° East 330 380 8,600 -2,100 Descending Toronto Center
23:18 45.1000 -75.6333 81° East 310 357 6,200 -2,340 Descending Toronto Center
23:19 45.1167 -75.5500 74° East 280 322 4,000 -1,860 Descending Toronto Center
23:20 45.1667 -75.4667 50° Northeast 280 322 2,500 -1,500 Descending Toronto Center